sensor_id;sensor_type;location;lat;lon;timestamp;P1;durP1;ratioP1;P2;durP2;ratioP2
80123;SDS011;69433;48.642;9.142;2023-09-08T00:00:00;6.80;;;5.15;;
80123;SDS011;69433;48.642;9.142;2023-09-08T00:02:26;6.90;;;5.63;;
80123;SDS011;69433;48.642;9.142;2023-09-08T00:04:52;8.52;;;5.63;;
80123;SDS011;69433;48.642;9.142;2023-09-08T00:07:18;8.10;;;5.75;;
80123;SDS011;69433;48.642;9.142;2023-09-08T00:09:43;7.75;;;5.60;;
80123;SDS011;69433;48.642;9.142;2023-09-08T00:12:09;7.57;;;5.90;;
80123;SDS011;69433;48.642;9.142;2023-09-08T00:14:34;7.72;;;5.38;;
80123;SDS011;69433;48.642;9.142;2023-09-08T00:16:59;9.10;;;5.72;;
80123;SDS011;69433;48.642;9.142;2023-09-08T00:19:27;8.30;;;5.60;;
80123;SDS011;69433;48.642;9.142;2023-09-08T00:21:52;7.10;;;5.55;;
80123;SDS011;69433;48.642;9.142;2023-09-08T00:24:18;7.53;;;5.45;;
80123;SDS011;69433;48.642;9.142;2023-09-08T00:26:43;8.50;;;5.50;;
80123;SDS011;69433;48.642;9.142;2023-09-08T00:29:08;8.43;;;5.55;;
80123;SDS011;69433;48.642;9.142;2023-09-08T00:31:34;8.02;;;5.20;;
80123;SDS011;69433;48.642;9.142;2023-09-08T00:33:59;9.13;;;5.80;;
80123;SDS011;69433;48.642;9.142;2023-09-08T00:36:25;7.43;;;5.95;;
80123;SDS011;69433;48.642;9.142;2023-09-08T00:38:50;8.80;;;5.90;;
80123;SDS011;69433;48.642;9.142;2023-09-08T00:41:15;8.68;;;5.88;;
80123;SDS011;69433;48.642;9.142;2023-09-08T00:43:41;9.18;;;5.55;;
80123;SDS011;69433;48.642;9.142;2023-09-08T00:46:06;7.78;;;5.40;;
80123;SDS011;69433;48.642;9.142;2023-09-08T00:48:33;7.10;;;5.70;;
80123;SDS011;69433;48.642;9.142;2023-09-08T00:51:08;8.68;;;5.60;;
80123;SDS011;69433;48.642;9.142;2023-09-08T00:53:35;8.20;;;5.95;;
80123;SDS011;69433;48.642;9.142;2023-09-08T00:56:00;6.43;;;5.15;;
80123;SDS011;69433;48.642;9.142;2023-09-08T00:58:27;7.55;;;5.47;;
80123;SDS011;69433;48.642;9.142;2023-09-08T01:00:52;9.80;;;5.55;;
80123;SDS011;69433;48.642;9.142;2023-09-08T01:03:22;6.75;;;5.47;;
80123;SDS011;69433;48.642;9.142;2023-09-08T01:05:47;7.70;;;5.57;;
80123;SDS011;69433;48.642;9.142;2023-09-08T01:08:13;7.25;;;5.22;;
80123;SDS011;69433;48.642;9.142;2023-09-08T01:10:39;6.78;;;5.63;;
80123;SDS011;69433;48.642;9.142;2023-09-08T01:13:07;8.68;;;5.80;;
80123;SDS011;69433;48.642;9.142;2023-09-08T01:15:33;6.95;;;5.47;;
80123;SDS011;69433;48.642;9.142;2023-09-08T01:17:58;8.15;;;5.07;;
80123;SDS011;69433;48.642;9.142;2023-09-08T01:20:25;8.45;;;5.63;;
80123;SDS011;69433;48.642;9.142;2023-09-08T01:25:49;9.10;;;5.88;;
80123;SDS011;69433;48.642;9.142;2023-09-08T01:28:20;8.50;;;5.38;;
80123;SDS011;69433;48.642;9.142;2023-09-08T01:30:46;8.45;;;5.68;;
80123;SDS011;69433;48.642;9.142;2023-09-08T01:33:13;6.78;;;5.43;;
80123;SDS011;69433;48.642;9.142;2023-09-08T01:35:38;9.10;;;5.78;;
80123;SDS011;69433;48.642;9.142;2023-09-08T01:38:03;7.40;;;5.57;;
80123;SDS011;69433;48.642;9.142;2023-09-08T01:40:29;7.03;;;5.45;;
80123;SDS011;69433;48.642;9.142;2023-09-08T01:42:55;8.85;;;5.75;;
80123;SDS011;69433;48.642;9.142;2023-09-08T01:45:22;8.38;;;5.55;;
80123;SDS011;69433;48.642;9.142;2023-09-08T01:47:47;8.52;;;5.38;;
80123;SDS011;69433;48.642;9.142;2023-09-08T01:50:13;6.72;;;5.43;;
80123;SDS011;69433;48.642;9.142;2023-09-08T01:52:38;8.95;;;5.82;;
80123;SDS011;69433;48.642;9.142;2023-09-08T01:55:03;7.75;;;5.60;;
80123;SDS011;69433;48.642;9.142;2023-09-08T01:57:29;7.18;;;5.57;;
80123;SDS011;69433;48.642;9.142;2023-09-08T01:59:54;7.28;;;5.65;;
80123;SDS011;69433;48.642;9.142;2023-09-08T02:02:20;8.05;;;5.60;;
80123;SDS011;69433;48.642;9.142;2023-09-08T02:04:45;7.28;;;5.63;;
80123;SDS011;69433;48.642;9.142;2023-09-08T02:07:10;7.20;;;5.57;;
80123;SDS011;69433;48.642;9.142;2023-09-08T02:09:36;7.57;;;5.40;;
80123;SDS011;69433;48.642;9.142;2023-09-08T02:12:03;7.20;;;5.30;;
80123;SDS011;69433;48.642;9.142;2023-09-08T02:14:29;6.75;;;5.35;;
80123;SDS011;69433;48.642;9.142;2023-09-08T02:16:58;6.65;;;5.32;;
80123;SDS011;69433;48.642;9.142;2023-09-08T02:19:24;7.53;;;5.57;;
80123;SDS011;69433;48.642;9.142;2023-09-08T02:21:49;8.75;;;5.28;;
80123;SDS011;69433;48.642;9.142;2023-09-08T02:24:15;7.35;;;5.25;;
80123;SDS011;69433;48.642;9.142;2023-09-08T02:26:40;6.75;;;5.30;;
80123;SDS011;69433;48.642;9.142;2023-09-08T02:29:08;8.80;;;5.32;;
80123;SDS011;69433;48.642;9.142;2023-09-08T02:31:34;7.65;;;5.40;;
80123;SDS011;69433;48.642;9.142;2023-09-08T02:33:59;9.07;;;5.82;;
80123;SDS011;69433;48.642;9.142;2023-09-08T02:36:24;8.23;;;5.05;;
80123;SDS011;69433;48.642;9.142;2023-09-08T02:38:53;7.18;;;5.60;;
80123;SDS011;69433;48.642;9.142;2023-09-08T02:41:19;10.27;;;5.70;;
80123;SDS011;69433;48.642;9.142;2023-09-08T02:43:45;7.55;;;5.40;;
80123;SDS011;69433;48.642;9.142;2023-09-08T02:46:11;7.80;;;5.43;;
80123;SDS011;69433;48.642;9.142;2023-09-08T02:48:36;7.95;;;5.32;;
80123;SDS011;69433;48.642;9.142;2023-09-08T02:51:01;9.38;;;5.78;;
80123;SDS011;69433;48.642;9.142;2023-09-08T02:53:27;8.15;;;5.53;;
80123;SDS011;69433;48.642;9.142;2023-09-08T02:55:56;6.95;;;5.25;;
80123;SDS011;69433;48.642;9.142;2023-09-08T02:58:25;6.60;;;5.18;;
80123;SDS011;69433;48.642;9.142;2023-09-08T03:00:51;9.07;;;5.32;;
80123;SDS011;69433;48.642;9.142;2023-09-08T03:03:19;6.50;;;5.35;;
80123;SDS011;69433;48.642;9.142;2023-09-08T03:05:45;8.20;;;5.18;;
80123;SDS011;69433;48.642;9.142;2023-09-08T03:08:18;8.10;;;5.20;;
80123;SDS011;69433;48.642;9.142;2023-09-08T03:10:46;9.27;;;4.75;;
80123;SDS011;69433;48.642;9.142;2023-09-08T03:13:13;6.55;;;5.28;;
80123;SDS011;69433;48.642;9.142;2023-09-08T03:15:49;7.70;;;5.28;;
80123;SDS011;69433;48.642;9.142;2023-09-08T03:18:15;7.43;;;5.20;;
80123;SDS011;69433;48.642;9.142;2023-09-08T03:20:40;8.90;;;5.40;;
80123;SDS011;69433;48.642;9.142;2023-09-08T03:25:50;9.27;;;5.38;;
80123;SDS011;69433;48.642;9.142;2023-09-08T03:28:15;7.70;;;5.47;;
80123;SDS011;69433;48.642;9.142;2023-09-08T03:30:40;8.23;;;4.90;;
80123;SDS011;69433;48.642;9.142;2023-09-08T03:33:06;8.05;;;5.65;;
80123;SDS011;69433;48.642;9.142;2023-09-08T03:35:31;7.20;;;5.53;;
80123;SDS011;69433;48.642;9.142;2023-09-08T03:37:56;7.82;;;5.50;;
80123;SDS011;69433;48.642;9.142;2023-09-08T03:40:21;7.20;;;5.57;;
80123;SDS011;69433;48.642;9.142;2023-09-08T03:42:47;6.43;;;4.85;;
80123;SDS011;69433;48.642;9.142;2023-09-08T03:45:13;7.72;;;5.25;;
80123;SDS011;69433;48.642;9.142;2023-09-08T03:47:39;8.05;;;5.75;;
80123;SDS011;69433;48.642;9.142;2023-09-08T03:50:04;7.10;;;5.18;;
80123;SDS011;69433;48.642;9.142;2023-09-08T03:52:32;6.82;;;4.97;;
80123;SDS011;69433;48.642;9.142;2023-09-08T03:54:57;8.82;;;4.88;;
80123;SDS011;69433;48.642;9.142;2023-09-08T03:57:24;7.68;;;4.68;;
80123;SDS011;69433;48.642;9.142;2023-09-08T03:59:49;6.68;;;5.22;;
80123;SDS011;69433;48.642;9.142;2023-09-08T04:02:15;8.48;;;5.30;;
80123;SDS011;69433;48.642;9.142;2023-09-08T04:04:41;8.38;;;5.35;;
80123;SDS011;69433;48.642;9.142;2023-09-08T04:07:06;9.25;;;5.13;;
80123;SDS011;69433;48.642;9.142;2023-09-08T04:09:32;8.02;;;4.97;;
80123;SDS011;69433;48.642;9.142;2023-09-08T04:11:57;9.27;;;4.95;;
80123;SDS011;69433;48.642;9.142;2023-09-08T04:14:22;8.93;;;5.75;;
80123;SDS011;69433;48.642;9.142;2023-09-08T04:16:52;8.43;;;5.20;;
80123;SDS011;69433;48.642;9.142;2023-09-08T04:19:18;7.15;;;5.20;;
80123;SDS011;69433;48.642;9.142;2023-09-08T04:21:43;9.35;;;5.20;;
80123;SDS011;69433;48.642;9.142;2023-09-08T04:24:08;10.32;;;5.22;;
80123;SDS011;69433;48.642;9.142;2023-09-08T04:26:35;8.50;;;4.90;;
80123;SDS011;69433;48.642;9.142;2023-09-08T04:29:01;7.47;;;5.35;;
80123;SDS011;69433;48.642;9.142;2023-09-08T04:31:26;6.57;;;4.85;;
80123;SDS011;69433;48.642;9.142;2023-09-08T04:33:52;7.30;;;5.07;;
80123;SDS011;69433;48.642;9.142;2023-09-08T04:36:18;8.23;;;5.15;;
80123;SDS011;69433;48.642;9.142;2023-09-08T04:38:49;8.32;;;5.13;;
80123;SDS011;69433;48.642;9.142;2023-09-08T04:41:14;8.13;;;5.25;;
80123;SDS011;69433;48.642;9.142;2023-09-08T04:43:40;7.15;;;4.82;;
80123;SDS011;69433;48.642;9.142;2023-09-08T04:46:05;6.32;;;4.90;;
80123;SDS011;69433;48.642;9.142;2023-09-08T04:48:33;7.55;;;5.45;;
80123;SDS011;69433;48.642;9.142;2023-09-08T04:50:59;6.80;;;5.53;;
80123;SDS011;69433;48.642;9.142;2023-09-08T04:53:24;7.32;;;5.43;;
80123;SDS011;69433;48.642;9.142;2023-09-08T04:55:49;8.77;;;5.40;;
80123;SDS011;69433;48.642;9.142;2023-09-08T04:58:15;6.47;;;5.28;;
80123;SDS011;69433;48.642;9.142;2023-09-08T05:00:40;6.75;;;5.38;;
80123;SDS011;69433;48.642;9.142;2023-09-08T05:03:05;7.88;;;5.28;;
80123;SDS011;69433;48.642;9.142;2023-09-08T05:05:31;7.05;;;5.38;;
80123;SDS011;69433;48.642;9.142;2023-09-08T05:07:56;5.78;;;4.97;;
80123;SDS011;69433;48.642;9.142;2023-09-08T05:10:24;6.30;;;4.90;;
80123;SDS011;69433;48.642;9.142;2023-09-08T05:12:50;6.07;;;4.97;;
80123;SDS011;69433;48.642;9.142;2023-09-08T05:15:16;8.93;;;5.53;;
80123;SDS011;69433;48.642;9.142;2023-09-08T05:17:42;7.55;;;5.00;;
80123;SDS011;69433;48.642;9.142;2023-09-08T05:20:08;7.13;;;5.45;;
80123;SDS011;69433;48.642;9.142;2023-09-08T05:22:34;7.22;;;5.28;;
80123;SDS011;69433;48.642;9.142;2023-09-08T05:24:59;7.63;;;5.57;;
80123;SDS011;69433;48.642;9.142;2023-09-08T05:27:25;7.07;;;5.63;;
80123;SDS011;69433;48.642;9.142;2023-09-08T05:29:50;7.53;;;5.68;;
80123;SDS011;69433;48.642;9.142;2023-09-08T05:32:15;7.20;;;5.85;;
80123;SDS011;69433;48.642;9.142;2023-09-08T05:34:41;8.40;;;5.65;;
80123;SDS011;69433;48.642;9.142;2023-09-08T05:37:07;6.75;;;5.57;;
80123;SDS011;69433;48.642;9.142;2023-09-08T05:39:33;7.40;;;5.40;;
80123;SDS011;69433;48.642;9.142;2023-09-08T05:41:59;7.25;;;5.20;;
80123;SDS011;69433;48.642;9.142;2023-09-08T05:44:24;7.35;;;5.50;;
80123;SDS011;69433;48.642;9.142;2023-09-08T05:46:50;6.65;;;5.70;;
80123;SDS011;69433;48.642;9.142;2023-09-08T05:49:15;8.40;;;5.45;;
80123;SDS011;69433;48.642;9.142;2023-09-08T05:51:42;8.93;;;5.78;;
80123;SDS011;69433;48.642;9.142;2023-09-08T05:54:08;9.25;;;5.40;;
80123;SDS011;69433;48.642;9.142;2023-09-08T05:56:37;7.65;;;5.68;;
80123;SDS011;69433;48.642;9.142;2023-09-08T05:59:03;9.65;;;5.68;;
80123;SDS011;69433;48.642;9.142;2023-09-08T06:01:28;7.90;;;5.68;;
80123;SDS011;69433;48.642;9.142;2023-09-08T06:03:57;6.45;;;5.07;;
80123;SDS011;69433;48.642;9.142;2023-09-08T06:06:22;7.65;;;5.25;;
80123;SDS011;69433;48.642;9.142;2023-09-08T06:08:47;7.97;;;5.68;;
80123;SDS011;69433;48.642;9.142;2023-09-08T06:11:20;6.50;;;4.90;;
80123;SDS011;69433;48.642;9.142;2023-09-08T06:13:45;7.38;;;5.32;;
80123;SDS011;69433;48.642;9.142;2023-09-08T06:16:12;8.65;;;5.50;;
80123;SDS011;69433;48.642;9.142;2023-09-08T06:18:43;6.95;;;5.03;;
80123;SDS011;69433;48.642;9.142;2023-09-08T06:21:09;7.45;;;4.97;;
80123;SDS011;69433;48.642;9.142;2023-09-08T06:23:35;6.70;;;5.30;;
80123;SDS011;69433;48.642;9.142;2023-09-08T06:26:00;7.88;;;5.30;;
80123;SDS011;69433;48.642;9.142;2023-09-08T06:28:26;8.35;;;5.57;;
80123;SDS011;69433;48.642;9.142;2023-09-08T06:31:02;8.55;;;4.82;;
80123;SDS011;69433;48.642;9.142;2023-09-08T06:33:29;6.80;;;5.05;;
80123;SDS011;69433;48.642;9.142;2023-09-08T06:35:54;7.07;;;5.07;;
80123;SDS011;69433;48.642;9.142;2023-09-08T06:38:21;6.82;;;4.75;;
80123;SDS011;69433;48.642;9.142;2023-09-08T06:40:46;6.78;;;5.10;;
80123;SDS011;69433;48.642;9.142;2023-09-08T06:43:12;6.35;;;4.90;;
80123;SDS011;69433;48.642;9.142;2023-09-08T06:45:38;8.10;;;5.60;;
80123;SDS011;69433;48.642;9.142;2023-09-08T06:48:05;6.93;;;5.45;;
80123;SDS011;69433;48.642;9.142;2023-09-08T06:50:30;9.38;;;5.22;;
80123;SDS011;69433;48.642;9.142;2023-09-08T06:52:55;9.00;;;5.28;;
80123;SDS011;69433;48.642;9.142;2023-09-08T06:55:21;9.13;;;5.25;;
80123;SDS011;69433;48.642;9.142;2023-09-08T06:57:46;6.88;;;5.50;;
80123;SDS011;69433;48.642;9.142;2023-09-08T07:00:16;6.78;;;4.88;;
80123;SDS011;69433;48.642;9.142;2023-09-08T07:02:42;10.32;;;5.15;;
80123;SDS011;69433;48.642;9.142;2023-09-08T07:05:07;8.13;;;5.10;;
80123;SDS011;69433;48.642;9.142;2023-09-08T07:07:36;7.07;;;4.85;;
80123;SDS011;69433;48.642;9.142;2023-09-08T07:10:02;6.72;;;5.43;;
80123;SDS011;69433;48.642;9.142;2023-09-08T07:12:28;7.32;;;5.32;;
80123;SDS011;69433;48.642;9.142;2023-09-08T07:14:54;9.70;;;5.38;;
80123;SDS011;69433;48.642;9.142;2023-09-08T07:17:19;8.77;;;4.90;;
80123;SDS011;69433;48.642;9.142;2023-09-08T07:19:44;5.55;;;4.57;;
80123;SDS011;69433;48.642;9.142;2023-09-08T07:22:10;6.05;;;4.50;;
80123;SDS011;69433;48.642;9.142;2023-09-08T07:24:35;6.60;;;5.15;;
80123;SDS011;69433;48.642;9.142;2023-09-08T07:27:00;5.97;;;4.78;;
80123;SDS011;69433;48.642;9.142;2023-09-08T07:29:26;7.72;;;4.88;;
80123;SDS011;69433;48.642;9.142;2023-09-08T07:31:51;8.77;;;5.00;;
80123;SDS011;69433;48.642;9.142;2023-09-08T07:34:17;7.72;;;4.90;;
80123;SDS011;69433;48.642;9.142;2023-09-08T07:39:35;9.00;;;5.05;;
80123;SDS011;69433;48.642;9.142;2023-09-08T07:42:01;9.73;;;4.72;;
80123;SDS011;69433;48.642;9.142;2023-09-08T07:44:26;6.88;;;4.88;;
80123;SDS011;69433;48.642;9.142;2023-09-08T07:46:52;7.90;;;5.10;;
80123;SDS011;69433;48.642;9.142;2023-09-08T07:49:18;7.55;;;5.07;;
80123;SDS011;69433;48.642;9.142;2023-09-08T07:51:44;7.13;;;5.38;;
80123;SDS011;69433;48.642;9.142;2023-09-08T07:54:10;6.97;;;5.15;;
80123;SDS011;69433;48.642;9.142;2023-09-08T07:56:37;7.80;;;5.60;;
80123;SDS011;69433;48.642;9.142;2023-09-08T07:59:02;7.68;;;5.53;;
80123;SDS011;69433;48.642;9.142;2023-09-08T08:01:27;9.30;;;5.35;;
80123;SDS011;69433;48.642;9.142;2023-09-08T08:03:53;6.80;;;5.10;;
80123;SDS011;69433;48.642;9.142;2023-09-08T08:06:18;7.97;;;6.00;;
80123;SDS011;69433;48.642;9.142;2023-09-08T08:08:43;6.53;;;5.30;;
80123;SDS011;69433;48.642;9.142;2023-09-08T08:11:12;7.47;;;5.63;;
80123;SDS011;69433;48.642;9.142;2023-09-08T08:13:38;6.60;;;5.63;;
80123;SDS011;69433;48.642;9.142;2023-09-08T08:16:03;7.88;;;5.93;;
80123;SDS011;69433;48.642;9.142;2023-09-08T08:18:29;7.43;;;5.80;;
80123;SDS011;69433;48.642;9.142;2023-09-08T08:20:54;9.77;;;6.03;;
80123;SDS011;69433;48.642;9.142;2023-09-08T08:23:19;8.48;;;5.75;;
80123;SDS011;69433;48.642;9.142;2023-09-08T08:25:45;7.65;;;5.90;;
80123;SDS011;69433;48.642;9.142;2023-09-08T08:28:15;7.63;;;5.78;;
80123;SDS011;69433;48.642;9.142;2023-09-08T08:30:40;9.52;;;5.90;;
80123;SDS011;69433;48.642;9.142;2023-09-08T08:33:06;7.57;;;5.75;;
80123;SDS011;69433;48.642;9.142;2023-09-08T08:35:31;7.05;;;5.25;;
80123;SDS011;69433;48.642;9.142;2023-09-08T08:37:59;8.73;;;5.85;;
80123;SDS011;69433;48.642;9.142;2023-09-08T08:40:27;9.23;;;6.00;;
80123;SDS011;69433;48.642;9.142;2023-09-08T08:42:54;8.90;;;6.32;;
80123;SDS011;69433;48.642;9.142;2023-09-08T08:45:22;8.73;;;6.68;;
80123;SDS011;69433;48.642;9.142;2023-09-08T08:47:49;7.15;;;5.93;;
80123;SDS011;69433;48.642;9.142;2023-09-08T08:50:15;8.43;;;6.25;;
80123;SDS011;69433;48.642;9.142;2023-09-08T08:52:42;7.55;;;5.60;;
80123;SDS011;69433;48.642;9.142;2023-09-08T08:55:08;10.25;;;6.28;;
80123;SDS011;69433;48.642;9.142;2023-09-08T08:57:36;8.20;;;6.18;;
80123;SDS011;69433;48.642;9.142;2023-09-08T09:00:09;7.97;;;5.90;;
80123;SDS011;69433;48.642;9.142;2023-09-08T09:02:39;8.30;;;6.22;;
80123;SDS011;69433;48.642;9.142;2023-09-08T09:05:12;8.43;;;5.95;;
80123;SDS011;69433;48.642;9.142;2023-09-08T09:07:43;8.50;;;6.65;;
80123;SDS011;69433;48.642;9.142;2023-09-08T09:10:09;7.63;;;6.20;;
80123;SDS011;69433;48.642;9.142;2023-09-08T09:12:37;6.68;;;5.80;;
80123;SDS011;69433;48.642;9.142;2023-09-08T09:15:03;9.00;;;6.15;;
80123;SDS011;69433;48.642;9.142;2023-09-08T09:17:30;9.98;;;6.07;;
80123;SDS011;69433;48.642;9.142;2023-09-08T09:20:12;8.63;;;6.13;;
80123;SDS011;69433;48.642;9.142;2023-09-08T09:22:38;6.93;;;6.03;;
80123;SDS011;69433;48.642;9.142;2023-09-08T09:25:07;8.07;;;5.70;;
80123;SDS011;69433;48.642;9.142;2023-09-08T09:27:33;9.02;;;5.68;;
80123;SDS011;69433;48.642;9.142;2023-09-08T09:30:04;6.72;;;5.53;;
80123;SDS011;69433;48.642;9.142;2023-09-08T09:32:32;7.60;;;5.45;;
80123;SDS011;69433;48.642;9.142;2023-09-08T09:34:59;7.75;;;5.63;;
80123;SDS011;69433;48.642;9.142;2023-09-08T09:37:26;7.07;;;5.65;;
80123;SDS011;69433;48.642;9.142;2023-09-08T09:39:52;7.22;;;6.10;;
80123;SDS011;69433;48.642;9.142;2023-09-08T09:42:24;6.47;;;5.78;;
80123;SDS011;69433;48.642;9.142;2023-09-08T09:44:53;8.50;;;6.05;;
80123;SDS011;69433;48.642;9.142;2023-09-08T09:47:18;7.03;;;6.32;;
80123;SDS011;69433;48.642;9.142;2023-09-08T09:49:44;6.80;;;5.40;;
80123;SDS011;69433;48.642;9.142;2023-09-08T09:52:12;8.30;;;6.22;;
80123;SDS011;69433;48.642;9.142;2023-09-08T09:54:39;6.93;;;5.72;;
80123;SDS011;69433;48.642;9.142;2023-09-08T09:57:13;8.48;;;6.60;;
80123;SDS011;69433;48.642;9.142;2023-09-08T09:59:42;7.55;;;5.50;;
80123;SDS011;69433;48.642;9.142;2023-09-08T10:02:08;7.25;;;5.45;;
80123;SDS011;69433;48.642;9.142;2023-09-08T10:04:38;8.07;;;5.35;;
80123;SDS011;69433;48.642;9.142;2023-09-08T10:07:05;9.20;;;6.13;;
80123;SDS011;69433;48.642;9.142;2023-09-08T10:09:32;7.28;;;5.10;;
80123;SDS011;69433;48.642;9.142;2023-09-08T10:11:58;12.60;;;5.55;;
80123;SDS011;69433;48.642;9.142;2023-09-08T10:14:29;9.00;;;5.82;;
80123;SDS011;69433;48.642;9.142;2023-09-08T10:16:56;6.18;;;5.25;;
80123;SDS011;69433;48.642;9.142;2023-09-08T10:19:24;9.90;;;5.60;;
80123;SDS011;69433;48.642;9.142;2023-09-08T10:21:51;7.20;;;5.53;;
80123;SDS011;69433;48.642;9.142;2023-09-08T10:24:24;8.57;;;5.35;;
80123;SDS011;69433;48.642;9.142;2023-09-08T10:26:51;7.70;;;5.40;;
80123;SDS011;69433;48.642;9.142;2023-09-08T10:29:23;6.50;;;5.65;;
80123;SDS011;69433;48.642;9.142;2023-09-08T10:31:49;8.43;;;5.72;;
80123;SDS011;69433;48.642;9.142;2023-09-08T10:34:15;6.65;;;5.35;;
80123;SDS011;69433;48.642;9.142;2023-09-08T10:36:42;8.45;;;5.25;;
80123;SDS011;69433;48.642;9.142;2023-09-08T10:44:44;7.63;;;4.97;;
80123;SDS011;69433;48.642;9.142;2023-09-08T10:47:25;6.07;;;5.07;;
80123;SDS011;69433;48.642;9.142;2023-09-08T10:49:51;6.90;;;5.32;;
80123;SDS011;69433;48.642;9.142;2023-09-08T10:52:20;7.78;;;5.50;;
80123;SDS011;69433;48.642;9.142;2023-09-08T10:54:48;7.28;;;5.28;;
80123;SDS011;69433;48.642;9.142;2023-09-08T10:57:21;6.90;;;5.28;;
80123;SDS011;69433;48.642;9.142;2023-09-08T10:59:55;6.57;;;5.35;;
80123;SDS011;69433;48.642;9.142;2023-09-08T11:02:35;8.68;;;5.35;;
80123;SDS011;69433;48.642;9.142;2023-09-08T11:05:03;8.07;;;5.20;;
80123;SDS011;69433;48.642;9.142;2023-09-08T11:07:31;7.90;;;4.95;;
80123;SDS011;69433;48.642;9.142;2023-09-08T11:09:57;7.95;;;5.55;;
80123;SDS011;69433;48.642;9.142;2023-09-08T11:12:25;8.70;;;5.32;;
80123;SDS011;69433;48.642;9.142;2023-09-08T11:14:51;6.57;;;4.72;;
80123;SDS011;69433;48.642;9.142;2023-09-08T11:17:36;7.40;;;5.65;;
80123;SDS011;69433;48.642;9.142;2023-09-08T11:20:07;6.75;;;5.43;;
80123;SDS011;69433;48.642;9.142;2023-09-08T11:22:34;7.15;;;5.13;;
80123;SDS011;69433;48.642;9.142;2023-09-08T11:25:00;6.78;;;5.35;;
80123;SDS011;69433;48.642;9.142;2023-09-08T11:27:29;7.55;;;5.20;;
80123;SDS011;69433;48.642;9.142;2023-09-08T11:29:55;7.75;;;5.47;;
80123;SDS011;69433;48.642;9.142;2023-09-08T11:32:21;6.05;;;4.88;;
80123;SDS011;69433;48.642;9.142;2023-09-08T11:34:46;5.78;;;5.00;;
80123;SDS011;69433;48.642;9.142;2023-09-08T11:37:13;6.90;;;5.15;;
80123;SDS011;69433;48.642;9.142;2023-09-08T11:39:41;6.05;;;5.13;;
80123;SDS011;69433;48.642;9.142;2023-09-08T11:42:12;6.53;;;4.60;;
80123;SDS011;69433;48.642;9.142;2023-09-08T11:44:39;5.85;;;4.95;;
80123;SDS011;69433;48.642;9.142;2023-09-08T11:47:08;6.75;;;4.85;;
80123;SDS011;69433;48.642;9.142;2023-09-08T11:49:44;8.05;;;5.00;;
80123;SDS011;69433;48.642;9.142;2023-09-08T11:52:10;6.15;;;4.72;;
80123;SDS011;69433;48.642;9.142;2023-09-08T11:54:36;7.55;;;5.25;;
80123;SDS011;69433;48.642;9.142;2023-09-08T11:57:05;5.90;;;4.85;;
80123;SDS011;69433;48.642;9.142;2023-09-08T11:59:33;6.18;;;4.75;;
80123;SDS011;69433;48.642;9.142;2023-09-08T12:01:59;7.57;;;5.00;;
80123;SDS011;69433;48.642;9.142;2023-09-08T12:04:26;6.10;;;4.93;;
80123;SDS011;69433;48.642;9.142;2023-09-08T12:06:54;8.00;;;4.72;;
80123;SDS011;69433;48.642;9.142;2023-09-08T12:09:22;6.63;;;4.97;;
80123;SDS011;69433;48.642;9.142;2023-09-08T12:11:48;6.28;;;4.75;;
80123;SDS011;69433;48.642;9.142;2023-09-08T12:14:14;6.00;;;4.85;;
80123;SDS011;69433;48.642;9.142;2023-09-08T12:16:40;5.70;;;4.75;;
80123;SDS011;69433;48.642;9.142;2023-09-08T12:19:07;6.63;;;4.95;;
80123;SDS011;69433;48.642;9.142;2023-09-08T12:21:53;5.55;;;4.93;;
80123;SDS011;69433;48.642;9.142;2023-09-08T12:24:20;5.32;;;4.60;;
80123;SDS011;69433;48.642;9.142;2023-09-08T12:27:15;6.00;;;4.90;;
80123;SDS011;69433;48.642;9.142;2023-09-08T12:29:41;5.90;;;5.20;;
80123;SDS011;69433;48.642;9.142;2023-09-08T12:32:16;5.45;;;4.60;;
80123;SDS011;69433;48.642;9.142;2023-09-08T12:34:42;6.35;;;5.18;;
80123;SDS011;69433;48.642;9.142;2023-09-08T12:37:08;5.57;;;4.85;;
80123;SDS011;69433;48.642;9.142;2023-09-08T12:39:36;5.70;;;4.50;;
80123;SDS011;69433;48.642;9.142;2023-09-08T12:42:03;7.13;;;5.47;;
80123;SDS011;69433;48.642;9.142;2023-09-08T12:44:28;6.30;;;4.97;;
80123;SDS011;69433;48.642;9.142;2023-09-08T12:46:53;7.22;;;4.80;;
80123;SDS011;69433;48.642;9.142;2023-09-08T12:49:19;6.78;;;4.78;;
80123;SDS011;69433;48.642;9.142;2023-09-08T12:51:44;6.55;;;5.25;;
80123;SDS011;69433;48.642;9.142;2023-09-08T12:54:10;6.07;;;4.97;;
80123;SDS011;69433;48.642;9.142;2023-09-08T12:56:35;5.30;;;4.60;;
80123;SDS011;69433;48.642;9.142;2023-09-08T12:59:08;6.97;;;5.30;;
80123;SDS011;69433;48.642;9.142;2023-09-08T13:01:34;5.40;;;4.53;;
80123;SDS011;69433;48.642;9.142;2023-09-08T13:03:59;5.50;;;4.72;;
80123;SDS011;69433;48.642;9.142;2023-09-08T13:06:24;5.45;;;4.45;;
80123;SDS011;69433;48.642;9.142;2023-09-08T13:08:50;5.60;;;4.57;;
80123;SDS011;69433;48.642;9.142;2023-09-08T13:11:15;6.43;;;4.50;;
80123;SDS011;69433;48.642;9.142;2023-09-08T13:13:40;5.03;;;4.30;;
80123;SDS011;69433;48.642;9.142;2023-09-08T13:16:06;5.57;;;4.78;;
80123;SDS011;69433;48.642;9.142;2023-09-08T13:18:31;5.55;;;5.00;;
80123;SDS011;69433;48.642;9.142;2023-09-08T13:21:02;5.30;;;4.60;;
80123;SDS011;69433;48.642;9.142;2023-09-08T13:23:27;6.22;;;5.05;;
80123;SDS011;69433;48.642;9.142;2023-09-08T13:25:52;6.85;;;4.82;;
80123;SDS011;69433;48.642;9.142;2023-09-08T13:28:18;6.00;;;4.95;;
80123;SDS011;69433;48.642;9.142;2023-09-08T13:30:43;6.95;;;4.95;;
80123;SDS011;69433;48.642;9.142;2023-09-08T13:33:08;6.90;;;5.03;;
80123;SDS011;69433;48.642;9.142;2023-09-08T13:35:34;6.82;;;5.03;;
80123;SDS011;69433;48.642;9.142;2023-09-08T13:37:59;6.43;;;5.10;;
80123;SDS011;69433;48.642;9.142;2023-09-08T13:40:25;7.30;;;4.88;;
80123;SDS011;69433;48.642;9.142;2023-09-08T13:42:50;5.75;;;4.95;;
80123;SDS011;69433;48.642;9.142;2023-09-08T13:45:15;6.45;;;5.10;;
80123;SDS011;69433;48.642;9.142;2023-09-08T13:47:41;6.18;;;4.72;;
80123;SDS011;69433;48.642;9.142;2023-09-08T13:50:06;7.05;;;5.10;;
80123;SDS011;69433;48.642;9.142;2023-09-08T13:52:34;5.78;;;4.90;;
80123;SDS011;69433;48.642;9.142;2023-09-08T13:54:59;6.45;;;5.30;;
80123;SDS011;69433;48.642;9.142;2023-09-08T13:57:25;7.72;;;5.22;;
80123;SDS011;69433;48.642;9.142;2023-09-08T13:59:51;7.55;;;5.13;;
80123;SDS011;69433;48.642;9.142;2023-09-08T14:02:16;8.95;;;5.22;;
80123;SDS011;69433;48.642;9.142;2023-09-08T14:04:41;6.68;;;5.30;;
80123;SDS011;69433;48.642;9.142;2023-09-08T14:07:09;5.60;;;5.00;;
80123;SDS011;69433;48.642;9.142;2023-09-08T14:09:34;6.50;;;5.05;;
80123;SDS011;69433;48.642;9.142;2023-09-08T14:12:01;6.13;;;4.78;;
80123;SDS011;69433;48.642;9.142;2023-09-08T14:14:26;5.70;;;4.82;;
80123;SDS011;69433;48.642;9.142;2023-09-08T14:16:51;7.38;;;5.05;;
80123;SDS011;69433;48.642;9.142;2023-09-08T14:19:17;8.68;;;5.38;;
80123;SDS011;69433;48.642;9.142;2023-09-08T14:21:42;6.40;;;5.20;;
80123;SDS011;69433;48.642;9.142;2023-09-08T14:24:07;6.45;;;4.93;;
80123;SDS011;69433;48.642;9.142;2023-09-08T14:26:33;8.75;;;5.00;;
80123;SDS011;69433;48.642;9.142;2023-09-08T14:28:58;6.60;;;5.10;;
80123;SDS011;69433;48.642;9.142;2023-09-08T14:31:23;8.65;;;5.57;;
80123;SDS011;69433;48.642;9.142;2023-09-08T14:33:50;6.07;;;5.25;;
80123;SDS011;69433;48.642;9.142;2023-09-08T14:36:18;8.35;;;5.38;;
80123;SDS011;69433;48.642;9.142;2023-09-08T14:38:44;6.57;;;5.88;;
80123;SDS011;69433;48.642;9.142;2023-09-08T14:41:10;6.90;;;5.28;;
80123;SDS011;69433;48.642;9.142;2023-09-08T14:43:37;10.35;;;6.05;;
80123;SDS011;69433;48.642;9.142;2023-09-08T14:46:02;10.25;;;6.35;;
80123;SDS011;69433;48.642;9.142;2023-09-08T14:48:31;8.95;;;6.80;;
80123;SDS011;69433;48.642;9.142;2023-09-08T14:50:57;10.65;;;6.93;;
80123;SDS011;69433;48.642;9.142;2023-09-08T14:53:22;8.25;;;6.15;;
80123;SDS011;69433;48.642;9.142;2023-09-08T14:55:48;12.30;;;6.43;;
80123;SDS011;69433;48.642;9.142;2023-09-08T14:58:14;12.10;;;6.95;;